Time;durP1;ratioP1;P1;durP2;ratioP2;P2;SDS_P1;SDS_P2;PMS_P1;PMS_P2;Temp;Humidity;BMP_temperature;BMP_pressure;BME280_temperature;BME280_humidity;BME280_pressure;Samples;Min_cycle;Max_cycle;Signal;HPM_P1;HPM_P2
2023/07/31 00:01:33;;;;;;;;;;;;;;;30.29;40.37;100048.58;102439;1303;61461;-82
2023/07/31 00:03:59;;;;;;;;;;;;;;;30.29;40.33;100042.94;102268;1303;61437;-82
2023/07/31 00:06:24;;;;;;;;;;;;;;;30.29;40.37;100048.21;102209;1305;61752;-82
2023/07/31 00:08:50;;;;;;;;;;;;;;;30.29;40.38;100055.83;102246;1301;61451;-82
2023/07/31 00:11:16;;;;;;;;;;;;;;;30.29;40.34;100060.73;102313;1307;61375;-82
2023/07/31 00:13:41;;;;;;;;;;;;;;;30.29;40.43;100060.77;102239;1303;61397;-82
2023/07/31 00:16:07;;;;;;;;;;;;;;;30.29;40.47;100056.75;102186;1303;61447;-82
2023/07/31 00:18:32;;;;;;;;;;;;;;;30.29;40.47;100054.23;102321;1305;61402;-82
2023/07/31 00:20:57;;;;;;;;;;;;;;;30.29;40.36;100052.64;102421;1303;61377;-82
2023/07/31 00:23:23;;;;;;;;;;;;;;;30.28;40.34;100053.19;102251;1303;61755;-82
2023/07/31 00:25:48;;;;;;;;;;;;;;;30.29;40.32;100048.80;102271;1302;61425;-82
2023/07/31 00:28:14;;;;;;;;;;;;;;;30.28;40.39;100044.30;102223;1300;61399;-82
2023/07/31 00:30:39;;;;;;;;;;;;;;;30.29;40.51;100046.64;102297;1303;61439;-82
2023/07/31 00:33:05;;;;;;;;;;;;;;;30.28;40.48;100046.70;102286;1303;61364;-82
2023/07/31 00:35:30;;;;;;;;;;;;;;;30.28;40.41;100049.04;102174;1303;61752;-82
2023/07/31 00:37:56;;;;;;;;;;;;;;;30.28;40.42;100055.02;102258;1303;61505;-82
2023/07/31 00:40:21;;;;;;;;;;;;;;;30.28;40.38;100057.08;102278;1303;61508;-82
2023/07/31 00:42:47;;;;;;;;;;;;;;;30.28;40.39;100053.94;102285;1302;61448;-82
2023/07/31 00:45:12;;;;;;;;;;;;;;;30.28;40.33;100046.68;102224;1303;61409;-82
2023/07/31 00:47:38;;;;;;;;;;;;;;;30.28;40.46;100042.88;102175;1305;61441;-82
2023/07/31 00:50:03;;;;;;;;;;;;;;;30.28;40.42;100039.27;102250;1303;61484;-82
2023/07/31 00:52:30;;;;;;;;;;;;;;;30.28;40.49;100040.58;102282;1303;61430;-82
2023/07/31 00:54:55;;;;;;;;;;;;;;;30.28;40.42;100044.05;102265;1302;61483;-82
2023/07/31 00:57:21;;;;;;;;;;;;;;;30.27;40.30;100044.42;102282;1303;61422;-82
2023/07/31 00:59:46;;;;;;;;;;;;;;;30.28;40.35;100045.85;102242;1308;61406;-82
2023/07/31 01:02:12;;;;;;;;;;;;;;;30.27;40.42;100048.44;102217;1305;61526;-82
2023/07/31 01:04:37;;;;;;;;;;;;;;;30.26;40.37;100048.30;102190;1303;61463;-82
2023/07/31 01:07:21;;;;;;;;;;;;;;;30.27;40.39;100053.55;102219;1303;61416;-82
2023/07/31 01:10:04;;;;;;;;;;;;;;;30.27;40.39;100057.89;102272;1303;64083;-82
2023/07/31 01:12:30;;;;;;;;;;;;;;;30.27;40.43;100081.27;102270;1303;65888;-82
2023/07/31 01:15:06;;;;;;;;;;;;;;;30.27;40.47;100099.79;102280;1303;61438;-82
2023/07/31 01:17:31;;;;;;;;;;;;;;;30.27;40.50;100118.13;102257;1302;61349;-82
2023/07/31 01:19:58;;;;;;;;;;;;;;;30.27;40.51;100132.46;102308;1303;61516;-82
2023/07/31 01:22:44;;;;;;;;;;;;;;;30.27;40.48;100137.52;102217;1303;61428;-82
2023/07/31 01:25:29;;;;;;;;;;;;;;;30.27;40.47;100139.70;101747;1309;61964;-82
2023/07/31 01:28:21;;;;;;;;;;;;;;;30.27;40.46;100139.16;101858;1308;61426;-82
2023/07/31 01:30:49;;;;;;;;;;;;;;;30.27;40.44;100143.35;101739;1308;63948;-82
2023/07/31 01:33:16;;;;;;;;;;;;;;;30.27;40.43;100145.69;101777;1308;65805;-82
2023/07/31 01:35:43;;;;;;;;;;;;;;;30.27;40.38;100148.42;101777;1308;61435;-82
2023/07/31 01:38:09;;;;;;;;;;;;;;;30.27;40.50;100154.06;101814;1309;61365;-82
2023/07/31 01:40:34;;;;;;;;;;;;;;;30.27;40.61;100155.88;101748;1309;61460;-82
2023/07/31 01:43:00;;;;;;;;;;;;;;;30.27;40.47;100158.04;101838;1314;61611;-82
2023/07/31 01:45:25;;;;;;;;;;;;;;;30.27;40.55;100164.23;101863;1309;61451;-82
2023/07/31 01:47:50;;;;;;;;;;;;;;;30.27;40.55;100169.30;101810;1314;61458;-82
2023/07/31 01:50:16;;;;;;;;;;;;;;;30.27;40.51;100179.28;101725;1309;61472;-82
2023/07/31 01:52:41;;;;;;;;;;;;;;;30.28;40.51;100183.43;101729;1309;61438;-82
2023/07/31 01:55:07;;;;;;;;;;;;;;;30.26;40.45;100189.49;101822;1309;61546;-82
2023/07/31 01:57:32;;;;;;;;;;;;;;;30.27;40.46;100196.91;101716;1311;61444;-82
2023/07/31 01:59:58;;;;;;;;;;;;;;;30.27;40.61;100205.45;101810;1309;62228;-82
2023/07/31 02:02:24;;;;;;;;;;;;;;;30.26;40.38;100207.67;101901;1303;61552;-82
2023/07/31 02:04:50;;;;;;;;;;;;;;;30.26;40.41;100208.95;102238;1303;61502;-82
2023/07/31 02:07:15;;;;;;;;;;;;;;;30.26;40.50;100210.63;102249;1303;61409;-82
2023/07/31 02:09:40;;;;;;;;;;;;;;;30.26;40.38;100216.98;102255;1305;61399;-82
2023/07/31 02:12:08;;;;;;;;;;;;;;;30.25;40.48;100221.59;102340;1303;61343;-82
2023/07/31 02:14:34;;;;;;;;;;;;;;;30.25;40.56;100225.61;102258;1304;61431;-82
2023/07/31 02:17:00;;;;;;;;;;;;;;;30.25;40.42;100229.56;102223;1302;62384;-82
2023/07/31 02:19:26;;;;;;;;;;;;;;;30.25;40.28;100232.14;102245;1301;61425;-82
2023/07/31 02:21:51;;;;;;;;;;;;;;;30.25;40.37;100237.80;102240;1302;61406;-82
2023/07/31 02:24:16;;;;;;;;;;;;;;;30.25;40.36;100246.52;102306;1302;61547;-82
2023/07/31 02:26:43;;;;;;;;;;;;;;;30.24;40.53;100250.39;102276;1302;61496;-82
2023/07/31 02:29:08;;;;;;;;;;;;;;;30.25;40.49;100249.98;102169;1302;65147;-82
2023/07/31 02:31:34;;;;;;;;;;;;;;;30.24;40.36;100247.54;102166;1307;63025;-82
2023/07/31 02:33:59;;;;;;;;;;;;;;;30.23;40.57;100241.39;102264;1303;61473;-82
2023/07/31 02:36:25;;;;;;;;;;;;;;;30.24;40.66;100230.33;102247;1302;61316;-82
2023/07/31 02:38:50;;;;;;;;;;;;;;;30.23;40.51;100228.52;102321;1302;61441;-82
2023/07/31 02:41:15;;;;;;;;;;;;;;;30.23;40.56;100237.44;102164;1302;61607;-82
2023/07/31 02:43:41;;;;;;;;;;;;;;;30.23;40.50;100241.08;102227;1302;62175;-82
2023/07/31 02:46:06;;;;;;;;;;;;;;;30.23;40.51;100236.05;102237;1303;61489;-82
2023/07/31 02:48:32;;;;;;;;;;;;;;;30.23;40.52;100233.49;102234;1303;61451;-82
2023/07/31 02:50:57;;;;;;;;;;;;;;;30.22;40.53;100229.38;102197;1302;61400;-82
2023/07/31 02:53:23;;;;;;;;;;;;;;;30.22;40.56;100232.67;102181;1308;61450;-82
2023/07/31 02:55:48;;;;;;;;;;;;;;;30.22;40.64;100232.27;102154;1302;61355;-82
2023/07/31 02:58:13;;;;;;;;;;;;;;;30.22;40.65;100227.06;102198;1303;61521;-82
2023/07/31 03:00:45;;;;;;;;;;;;;;;30.21;40.71;100217.50;102179;1305;61727;-82
2023/07/31 03:03:11;;;;;;;;;;;;;;;30.21;40.64;100215.16;102263;1302;61768;-82
2023/07/31 03:05:37;;;;;;;;;;;;;;;30.21;40.71;100212.48;102282;1302;61335;-82
2023/07/31 03:08:03;;;;;;;;;;;;;;;30.21;40.69;100214.88;102208;1303;61419;-82
2023/07/31 03:10:29;;;;;;;;;;;;;;;30.21;40.75;100214.86;102198;1303;61443;-82
2023/07/31 03:12:54;;;;;;;;;;;;;;;30.20;40.73;100215.27;102275;1302;61524;-82
2023/07/31 03:15:20;;;;;;;;;;;;;;;30.21;40.72;100209.30;102221;1303;61441;-82
2023/07/31 03:17:45;;;;;;;;;;;;;;;30.20;40.78;100205.73;102246;1308;61402;-82
2023/07/31 03:20:11;;;;;;;;;;;;;;;30.21;40.74;100202.77;102248;1302;61534;-82
2023/07/31 03:22:36;;;;;;;;;;;;;;;30.20;40.82;100199.91;102366;1303;61445;-82
2023/07/31 03:25:02;;;;;;;;;;;;;;;30.20;40.76;100193.74;102268;1303;61434;-82
2023/07/31 03:27:28;;;;;;;;;;;;;;;30.20;40.90;100194.49;102222;1302;61517;-82
2023/07/31 03:29:53;;;;;;;;;;;;;;;30.20;40.89;100202.45;102281;1302;61421;-82
2023/07/31 03:32:19;;;;;;;;;;;;;;;30.20;40.88;100208.27;102309;1303;65840;-82
2023/07/31 03:34:44;;;;;;;;;;;;;;;30.19;40.94;100210.85;102253;1305;61733;-82
2023/07/31 03:37:09;;;;;;;;;;;;;;;30.19;40.93;100210.48;102233;1303;61442;-82
2023/07/31 03:39:35;;;;;;;;;;;;;;;30.19;40.82;100210.18;102430;1303;61457;-82
2023/07/31 03:42:00;;;;;;;;;;;;;;;30.19;40.88;100214.86;102258;1308;61427;-82
2023/07/31 03:44:26;;;;;;;;;;;;;;;30.19;40.93;100217.67;102265;1303;61543;-82
2023/07/31 03:46:51;;;;;;;;;;;;;;;30.19;40.92;100214.15;102252;1303;61473;-82
2023/07/31 03:49:17;;;;;;;;;;;;;;;30.19;40.99;100214.58;102282;1303;62030;-82
2023/07/31 03:51:43;;;;;;;;;;;;;;;30.19;40.95;100212.57;102281;1303;61447;-82
2023/07/31 03:54:09;;;;;;;;;;;;;;;30.19;40.94;100211.30;102283;1303;61378;-82
2023/07/31 03:56:34;;;;;;;;;;;;;;;30.19;41.00;100211.69;102269;1305;61515;-82
2023/07/31 03:59:00;;;;;;;;;;;;;;;30.19;41.07;100208.95;102277;1303;61429;-82
2023/07/31 04:01:26;;;;;;;;;;;;;;;30.18;41.03;100210.80;102223;1303;61380;-82
2023/07/31 04:03:51;;;;;;;;;;;;;;;30.18;40.95;100214.86;102291;1303;61511;-82
2023/07/31 04:06:18;;;;;;;;;;;;;;;30.18;41.01;100219.96;102237;1303;61477;-82
2023/07/31 04:08:43;;;;;;;;;;;;;;;30.18;41.02;100225.95;102324;1301;61425;-82
2023/07/31 04:11:09;;;;;;;;;;;;;;;30.18;40.91;100227.23;102290;1302;62112;-82
2023/07/31 04:13:34;;;;;;;;;;;;;;;30.18;41.04;100229.42;102211;1308;61408;-82
2023/07/31 04:16:00;;;;;;;;;;;;;;;30.17;41.02;100232.52;102173;1303;61528;-82
2023/07/31 04:18:26;;;;;;;;;;;;;;;30.17;41.08;100237.67;102197;1305;61478;-82
2023/07/31 04:20:52;;;;;;;;;;;;;;;30.17;41.04;100238.42;102279;1302;61450;-82
2023/07/31 04:23:18;;;;;;;;;;;;;;;30.17;41.06;100242.45;102179;1303;61524;-82
2023/07/31 04:25:44;;;;;;;;;;;;;;;30.16;41.03;100246.08;102218;1305;61323;-82
2023/07/31 04:28:09;;;;;;;;;;;;;;;30.16;40.93;100255.02;102329;1303;61492;-82
2023/07/31 04:30:36;;;;;;;;;;;;;;;30.16;41.11;100254.17;102184;1303;61431;-82
2023/07/31 04:33:03;;;;;;;;;;;;;;;30.15;41.08;100260.61;102388;1302;61339;-82
2023/07/31 04:35:29;;;;;;;;;;;;;;;30.15;41.03;100259.90;102257;1303;61445;-82
2023/07/31 04:37:54;;;;;;;;;;;;;;;30.15;40.94;100264.76;102270;1303;61416;-82
2023/07/31 04:40:20;;;;;;;;;;;;;;;30.14;41.05;100269.36;102258;1305;62599;-82
2023/07/31 04:42:46;;;;;;;;;;;;;;;30.15;41.06;100273.52;102224;1302;61441;-82
2023/07/31 04:45:11;;;;;;;;;;;;;;;30.14;41.01;100269.98;102213;1303;61428;-82
2023/07/31 04:47:37;;;;;;;;;;;;;;;30.15;41.10;100273.34;102193;1303;61419;-82
2023/07/31 04:50:03;;;;;;;;;;;;;;;30.15;41.02;100274.98;102140;1303;61764;-82
2023/07/31 04:52:28;;;;;;;;;;;;;;;30.14;41.02;100273.45;102292;1301;61433;-82
2023/07/31 04:54:54;;;;;;;;;;;;;;;30.14;41.08;100274.53;102377;1303;62181;-82
2023/07/31 04:57:20;;;;;;;;;;;;;;;30.13;41.02;100279.48;102238;1306;61498;-82
2023/07/31 04:59:45;;;;;;;;;;;;;;;30.13;41.14;100275.70;102236;1303;61485;-82
2023/07/31 05:02:11;;;;;;;;;;;;;;;30.13;41.11;100274.44;102217;1303;61474;-82
2023/07/31 05:04:37;;;;;;;;;;;;;;;30.13;41.04;100275.15;102275;1307;61607;-82
2023/07/31 05:07:02;;;;;;;;;;;;;;;30.13;41.08;100277.20;102202;1303;61441;-82
2023/07/31 05:09:28;;;;;;;;;;;;;;;30.13;40.94;100276.66;102260;1303;61437;-82
2023/07/31 05:11:53;;;;;;;;;;;;;;;30.13;41.07;100284.09;102217;1302;61924;-82
2023/07/31 05:14:20;;;;;;;;;;;;;;;30.12;41.00;100288.84;102244;1302;62826;-82
2023/07/31 05:16:46;;;;;;;;;;;;;;;30.13;40.89;100291.31;102218;1303;61381;-82
2023/07/31 05:19:11;;;;;;;;;;;;;;;30.13;40.93;100296.41;102194;1303;61393;-82
2023/07/31 05:21:37;;;;;;;;;;;;;;;30.12;41.04;100297.21;102123;1303;61410;-82
2023/07/31 05:24:02;;;;;;;;;;;;;;;30.12;40.91;100295.23;102232;1303;61431;-82
2023/07/31 05:26:28;;;;;;;;;;;;;;;30.12;41.04;100295.23;102207;1303;61528;-82
2023/07/31 05:28:53;;;;;;;;;;;;;;;30.12;40.95;100300.64;102218;1303;61394;-82
2023/07/31 05:31:19;;;;;;;;;;;;;;;30.12;41.01;100296.36;102113;1305;61527;-82
2023/07/31 05:33:45;;;;;;;;;;;;;;;30.11;41.08;100299.83;102377;1302;61511;-82
2023/07/31 05:36:10;;;;;;;;;;;;;;;30.11;41.14;100298.08;102225;1306;61461;-82
2023/07/31 05:38:36;;;;;;;;;;;;;;;30.11;40.99;100296.07;102255;1306;61297;-82
2023/07/31 05:41:01;;;;;;;;;;;;;;;30.11;41.03;100292.59;102148;1303;61447;-82
2023/07/31 05:43:27;;;;;;;;;;;;;;;30.11;41.02;100292.88;102215;1303;62117;-81
2023/07/31 05:45:52;;;;;;;;;;;;;;;30.10;41.11;100292.20;102216;1303;61451;-81
2023/07/31 05:48:17;;;;;;;;;;;;;;;30.09;40.98;100291.77;102261;1303;61995;-81
2023/07/31 05:50:43;;;;;;;;;;;;;;;30.09;41.08;100288.66;102279;1305;61453;-82
2023/07/31 05:53:10;;;;;;;;;;;;;;;30.09;41.03;100286.15;102295;1303;65652;-82
2023/07/31 05:55:36;;;;;;;;;;;;;;;30.09;41.09;100288.65;102239;1303;61400;-82
2023/07/31 05:58:01;;;;;;;;;;;;;;;30.09;41.14;100291.75;102207;1301;61304;-81
2023/07/31 06:00:27;;;;;;;;;;;;;;;30.08;41.07;100293.08;102193;1303;61524;-81
2023/07/31 06:02:53;;;;;;;;;;;;;;;30.08;41.00;100288.52;102597;1305;61357;-81
2023/07/31 06:05:18;;;;;;;;;;;;;;;30.08;41.17;100288.46;102400;1303;62655;-84
2023/07/31 06:07:43;;;;;;;;;;;;;;;30.05;41.01;100289.48;102372;1300;61346;-83
2023/07/31 06:10:09;;;;;;;;;;;;;;;30.03;40.90;100291.05;102263;1300;61487;-83
2023/07/31 06:12:34;;;;;;;;;;;;;;;30.00;41.07;100295.16;102383;1300;61348;-81
2023/07/31 06:15:00;;;;;;;;;;;;;;;29.98;41.00;100290.52;102272;1303;61414;-81
2023/07/31 06:17:26;;;;;;;;;;;;;;;29.96;41.05;100292.27;102224;1305;61473;-83
2023/07/31 06:19:51;;;;;;;;;;;;;;;29.94;41.23;100301.02;102544;1300;61499;-81
2023/07/31 06:22:16;;;;;;;;;;;;;;;29.92;41.25;100305.39;102623;1299;61428;-80
2023/07/31 06:24:42;;;;;;;;;;;;;;;29.90;41.19;100302.13;102562;1300;62478;-81
2023/07/31 06:27:07;;;;;;;;;;;;;;;29.89;41.19;100304.96;102424;1306;62616;-81
2023/07/31 06:29:33;;;;;;;;;;;;;;;29.88;41.15;100306.06;102422;1300;61387;-81
2023/07/31 06:31:58;;;;;;;;;;;;;;;29.86;41.16;100306.20;102664;1300;61940;-81
2023/07/31 06:34:24;;;;;;;;;;;;;;;29.86;41.36;100311.33;102498;1305;61418;-80
2023/07/31 06:36:50;;;;;;;;;;;;;;;29.85;41.20;100318.70;102331;1308;61431;-80
2023/07/31 06:39:15;;;;;;;;;;;;;;;29.83;41.22;100322.70;102595;1300;61413;-81
2023/07/31 06:41:41;;;;;;;;;;;;;;;29.82;41.31;100327.52;102343;1300;61492;-81
2023/07/31 06:44:07;;;;;;;;;;;;;;;29.80;41.28;100326.48;102443;1303;61399;-81
2023/07/31 06:46:32;;;;;;;;;;;;;;;29.80;41.41;100327.60;102394;1300;61443;-80
2023/07/31 06:48:58;;;;;;;;;;;;;;;29.80;41.48;100330.15;102540;1300;61506;-80
2023/07/31 06:51:23;;;;;;;;;;;;;;;29.79;41.33;100334.41;102530;1304;61419;-81
2023/07/31 06:53:48;;;;;;;;;;;;;;;29.79;41.48;100336.66;102627;1299;61415;-80
2023/07/31 06:56:15;;;;;;;;;;;;;;;29.78;41.32;100335.95;102577;1300;61422;-81
2023/07/31 06:58:40;;;;;;;;;;;;;;;29.78;41.40;100337.99;102400;1300;61781;-80
2023/07/31 07:01:06;;;;;;;;;;;;;;;29.78;41.54;100347.41;102416;1303;61435;-81
2023/07/31 07:03:32;;;;;;;;;;;;;;;29.77;41.36;100349.39;102251;1300;61421;-81
2023/07/31 07:05:58;;;;;;;;;;;;;;;29.75;41.41;100351.54;102396;1300;61434;-80
2023/07/31 07:08:24;;;;;;;;;;;;;;;29.75;41.40;100355.75;102268;1305;61320;-81
2023/07/31 07:10:50;;;;;;;;;;;;;;;29.75;41.39;100358.23;102286;1300;266124;-81
2023/07/31 07:13:16;;;;;;;;;;;;;;;29.75;41.66;100358.84;102439;1305;61418;-81
2023/07/31 07:15:41;;;;;;;;;;;;;;;29.74;41.47;100358.51;102630;1302;66029;-81
2023/07/31 07:18:07;;;;;;;;;;;;;;;29.74;41.40;100360.17;102458;1305;61460;-82
2023/07/31 07:20:33;;;;;;;;;;;;;;;29.73;41.40;100362.59;102465;1300;61435;-81
2023/07/31 07:22:59;;;;;;;;;;;;;;;29.73;41.32;100367.52;102511;1300;61421;-82
2023/07/31 07:25:24;;;;;;;;;;;;;;;29.73;41.41;100367.56;102316;1299;61435;-81
2023/07/31 07:27:49;;;;;;;;;;;;;;;29.74;41.44;100370.02;102478;1300;61413;-81
2023/07/31 07:30:15;;;;;;;;;;;;;;;29.74;41.49;100373.44;102223;1303;61291;-81
2023/07/31 07:32:41;;;;;;;;;;;;;;;29.74;41.51;100370.55;102552;1300;61406;-81
2023/07/31 07:35:07;;;;;;;;;;;;;;;29.74;41.45;100370.93;102365;1300;61518;-82
2023/07/31 07:37:32;;;;;;;;;;;;;;;29.74;41.34;100374.16;102746;1300;61540;-81
2023/07/31 07:39:58;;;;;;;;;;;;;;;29.74;41.36;100379.98;102619;1299;61415;-81
2023/07/31 07:42:24;;;;;;;;;;;;;;;29.74;41.37;100382.90;102525;1300;61412;-81
2023/07/31 07:44:51;;;;;;;;;;;;;;;29.73;41.37;100386.36;102479;1305;61430;-81
2023/07/31 07:47:16;;;;;;;;;;;;;;;29.73;41.41;100387.82;102495;1304;61323;-82
2023/07/31 07:49:42;;;;;;;;;;;;;;;29.73;41.68;100387.66;102410;1300;62153;-82
2023/07/31 07:52:07;;;;;;;;;;;;;;;29.72;41.48;100386.20;102294;1301;61335;-81
2023/07/31 07:54:33;;;;;;;;;;;;;;;29.72;41.66;100386.02;102561;1299;61578;-81
2023/07/31 07:56:59;;;;;;;;;;;;;;;29.72;41.50;100385.78;102477;1300;61448;-81
2023/07/31 07:59:25;;;;;;;;;;;;;;;29.71;41.59;100378.48;102573;1300;61310;-81
2023/07/31 08:01:50;;;;;;;;;;;;;;;29.71;41.62;100374.50;102332;1300;61444;-81
2023/07/31 08:04:15;;;;;;;;;;;;;;;29.71;41.43;100373.96;102258;1303;61496;-80
2023/07/31 08:06:41;;;;;;;;;;;;;;;29.70;41.39;100378.73;102424;1299;61498;-81
2023/07/31 08:09:08;;;;;;;;;;;;;;;29.71;41.49;100379.16;102675;1301;61458;-81
2023/07/31 08:11:34;;;;;;;;;;;;;;;29.72;41.45;100378.37;102509;1300;61314;-82
2023/07/31 08:14:01;;;;;;;;;;;;;;;29.74;41.51;100381.05;102867;1300;61492;-82
2023/07/31 08:16:26;;;;;;;;;;;;;;;29.75;41.53;100384.04;102561;1304;61294;-82
2023/07/31 08:18:52;;;;;;;;;;;;;;;29.76;41.50;100382.44;102325;1300;61550;-81
2023/07/31 08:21:18;;;;;;;;;;;;;;;29.78;41.45;100381.69;102405;1300;61434;-81
2023/07/31 08:23:43;;;;;;;;;;;;;;;29.79;41.61;100381.73;102341;1302;65838;-81
2023/07/31 08:26:14;;;;;;;;;;;;;;;29.81;41.49;100384.45;102420;1300;61722;-82
2023/07/31 08:28:40;;;;;;;;;;;;;;;29.82;41.53;100382.55;102769;1300;61422;-82
2023/07/31 08:31:05;;;;;;;;;;;;;;;29.83;41.41;100384.25;102527;1300;61383;-82
2023/07/31 08:33:31;;;;;;;;;;;;;;;29.83;41.52;100385.98;102585;1300;61434;-82
2023/07/31 08:35:56;;;;;;;;;;;;;;;29.84;41.52;100386.48;102352;1300;62616;-82
2023/07/31 08:38:25;;;;;;;;;;;;;;;29.85;41.48;100387.23;102351;1300;61416;-81
2023/07/31 08:40:52;;;;;;;;;;;;;;;29.86;41.47;100389.89;102397;1299;61419;-82
2023/07/31 08:43:18;;;;;;;;;;;;;;;29.86;41.51;100388.20;102465;1305;61434;-82
2023/07/31 08:45:45;;;;;;;;;;;;;;;29.87;41.56;100385.02;102442;1300;61518;-82
2023/07/31 08:48:10;;;;;;;;;;;;;;;29.88;41.43;100389.65;102401;1300;61415;-82
2023/07/31 08:50:35;;;;;;;;;;;;;;;29.88;41.57;100397.73;102404;1299;62056;-82
2023/07/31 08:53:01;;;;;;;;;;;;;;;29.88;41.41;100401.17;102369;1302;61396;-82
2023/07/31 08:55:27;;;;;;;;;;;;;;;29.89;41.39;100404.41;102348;1299;65901;-82
2023/07/31 08:57:53;;;;;;;;;;;;;;;29.89;41.45;100407.34;102342;1300;61428;-82
2023/07/31 09:00:23;;;;;;;;;;;;;;;29.89;41.41;100409.86;102465;1304;61412;-82
2023/07/31 09:02:52;;;;;;;;;;;;;;;29.89;41.41;100411.64;102344;1300;63889;-82
2023/07/31 09:05:18;;;;;;;;;;;;;;;29.89;41.45;100414.51;102637;1300;66792;-82
2023/07/31 09:07:46;;;;;;;;;;;;;;;29.90;41.32;100419.17;102457;1300;61459;-82
2023/07/31 09:10:11;;;;;;;;;;;;;;;29.90;41.35;100416.24;102440;1305;61335;-82
2023/07/31 09:12:37;;;;;;;;;;;;;;;29.90;41.41;100418.39;102293;1305;61430;-82
2023/07/31 09:15:03;;;;;;;;;;;;;;;29.90;41.42;100415.33;102443;1300;61496;-82
2023/07/31 09:17:32;;;;;;;;;;;;;;;29.90;41.48;100419.17;102309;1300;61501;-82
2023/07/31 09:19:58;;;;;;;;;;;;;;;29.89;41.35;100423.05;102570;1300;61412;-82
2023/07/31 09:22:33;;;;;;;;;;;;;;;29.88;41.33;100416.31;102411;1303;61358;-82
2023/07/31 09:25:19;;;;;;;;;;;;;;;29.87;41.48;100418.06;103061;1300;66094;-82
2023/07/31 09:27:47;;;;;;;;;;;;;;;29.85;41.41;100418.59;102518;1300;61880;-82
2023/07/31 09:30:13;;;;;;;;;;;;;;;29.84;41.44;100419.71;102527;1304;61403;-82
2023/07/31 09:32:38;;;;;;;;;;;;;;;29.83;41.44;100422.67;102535;1299;61419;-82
2023/07/31 09:35:13;;;;;;;;;;;;;;;29.83;41.40;100425.05;102472;1300;61415;-82
2023/07/31 09:37:39;;;;;;;;;;;;;;;29.82;41.39;100423.67;102492;1300;61342;-81
2023/07/31 09:40:05;;;;;;;;;;;;;;;29.82;41.34;100420.43;102424;1300;61317;-82
2023/07/31 09:42:31;;;;;;;;;;;;;;;29.81;41.35;100417.23;102479;1300;61400;-82
2023/07/31 09:45:17;;;;;;;;;;;;;;;29.81;41.46;100416.32;102504;1300;61366;-82
2023/07/31 09:47:48;;;;;;;;;;;;;;;29.81;41.44;100416.90;102663;1303;61340;-82
2023/07/31 09:50:14;;;;;;;;;;;;;;;29.81;41.42;100416.86;102776;1299;61958;-82
2023/07/31 09:52:40;;;;;;;;;;;;;;;29.82;41.47;100419.67;102540;1299;61327;-82
2023/07/31 09:55:05;;;;;;;;;;;;;;;29.82;41.37;100419.81;102568;1299;61441;-82
2023/07/31 09:57:31;;;;;;;;;;;;;;;29.82;41.40;100421.63;102642;1300;61341;-82
2023/07/31 09:59:56;;;;;;;;;;;;;;;29.83;41.32;100420.50;102507;1300;61513;-82
2023/07/31 10:02:22;;;;;;;;;;;;;;;29.83;41.41;100421.76;102596;1300;61412;-82
2023/07/31 10:04:49;;;;;;;;;;;;;;;29.83;41.30;100419.95;102400;1300;61470;-82
2023/07/31 10:07:14;;;;;;;;;;;;;;;29.83;41.36;100422.34;102371;1305;61407;-82
2023/07/31 10:09:40;;;;;;;;;;;;;;;29.83;41.37;100424.95;102437;1300;61368;-83
2023/07/31 10:12:06;;;;;;;;;;;;;;;29.83;41.48;100426.96;102534;1300;62129;-83
2023/07/31 10:14:32;;;;;;;;;;;;;;;29.83;41.35;100423.56;102451;1305;61407;-83
2023/07/31 10:16:57;;;;;;;;;;;;;;;29.84;41.29;100423.67;102350;1302;61435;-83
2023/07/31 10:19:22;;;;;;;;;;;;;;;29.84;41.32;100422.23;102458;1300;61354;-83
2023/07/31 10:21:48;;;;;;;;;;;;;;;29.84;41.19;100417.29;102422;1300;61386;-82
2023/07/31 10:24:14;;;;;;;;;;;;;;;29.84;41.20;100413.70;102379;1300;61334;-83
2023/07/31 10:26:39;;;;;;;;;;;;;;;29.84;41.35;100414.41;102639;1300;61460;-83
2023/07/31 10:29:05;;;;;;;;;;;;;;;29.84;41.34;100410.55;102275;1300;61441;-83
2023/07/31 10:31:31;;;;;;;;;;;;;;;29.84;41.18;100404.54;102313;1300;62109;-83
2023/07/31 10:33:58;;;;;;;;;;;;;;;29.85;41.17;100403.72;102518;1300;61348;-83
2023/07/31 10:36:24;;;;;;;;;;;;;;;29.85;41.30;100399.67;102557;1302;61312;-83
2023/07/31 10:38:50;;;;;;;;;;;;;;;29.87;41.18;100400.62;102520;1303;61422;-83
2023/07/31 10:41:16;;;;;;;;;;;;;;;29.88;41.27;100396.73;102399;1305;61537;-83
2023/07/31 10:43:41;;;;;;;;;;;;;;;29.88;41.23;100399.38;102573;1300;61377;-83
2023/07/31 10:46:11;;;;;;;;;;;;;;;29.89;41.24;100401.27;102467;1305;61461;-83
2023/07/31 10:48:37;;;;;;;;;;;;;;;29.90;41.21;100403.70;102402;1304;63869;-83
2023/07/31 10:51:08;;;;;;;;;;;;;;;29.91;41.16;100400.72;102405;1305;61479;-83
2023/07/31 10:53:33;;;;;;;;;;;;;;;29.91;41.28;100401.20;102575;1300;61941;-83
2023/07/31 10:56:09;;;;;;;;;;;;;;;29.92;41.21;100404.18;102498;1303;61447;-83
2023/07/31 10:58:34;;;;;;;;;;;;;;;29.92;41.34;100406.33;102635;1300;64067;-83
2023/07/31 11:01:02;;;;;;;;;;;;;;;29.93;41.30;100403.49;102420;1305;61495;-83
2023/07/31 11:03:48;;;;;;;;;;;;;;;29.95;41.29;100395.61;102452;1302;61351;-83
2023/07/31 11:06:16;;;;;;;;;;;;;;;29.95;41.29;100389.96;102594;1306;61374;-83
2023/07/31 11:08:49;;;;;;;;;;;;;;;29.96;41.30;100386.42;102691;1305;61460;-83
2023/07/31 11:11:16;;;;;;;;;;;;;;;29.96;41.29;100383.45;102450;1300;65634;-83
2023/07/31 11:13:52;;;;;;;;;;;;;;;29.97;41.25;100382.05;102283;1303;61466;-83
2023/07/31 11:16:19;;;;;;;;;;;;;;;29.98;41.16;100382.86;102271;1303;61412;-83
2023/07/31 11:18:45;;;;;;;;;;;;;;;29.98;41.20;100382.11;102449;1305;63901;-83
2023/07/31 11:21:16;;;;;;;;;;;;;;;29.99;41.10;100383.46;102641;1305;61331;-83
2023/07/31 11:23:45;;;;;;;;;;;;;;;29.99;41.21;100381.83;102393;1302;61307;-83
2023/07/31 11:26:11;;;;;;;;;;;;;;;30.00;41.11;100383.73;102416;1301;61365;-83
2023/07/31 11:28:36;;;;;;;;;;;;;;;30.00;41.18;100385.14;102433;1303;61484;-83
2023/07/31 11:31:13;;;;;;;;;;;;;;;30.01;41.03;100384.73;102362;1308;61979;-83
2023/07/31 11:33:38;;;;;;;;;;;;;;;30.01;41.13;100382.30;102296;1303;61331;-83
2023/07/31 11:36:04;;;;;;;;;;;;;;;30.01;41.15;100371.83;102321;1304;61380;-83
2023/07/31 11:38:30;;;;;;;;;;;;;;;30.01;41.31;100372.13;102294;1303;71257;-83
2023/07/31 11:40:56;;;;;;;;;;;;;;;30.02;41.27;100370.80;102262;1304;61432;-83
2023/07/31 11:43:22;;;;;;;;;;;;;;;30.02;41.18;100367.37;102331;1303;61339;-83
2023/07/31 11:45:48;;;;;;;;;;;;;;;30.03;41.22;100364.73;102364;1303;61506;-83
2023/07/31 11:48:20;;;;;;;;;;;;;;;30.02;41.13;100368.55;102369;1301;62294;-83
2023/07/31 11:50:46;;;;;;;;;;;;;;;30.03;40.99;100367.63;102249;1303;64129;-83
2023/07/31 11:53:12;;;;;;;;;;;;;;;30.03;40.96;100363.77;102325;1306;61404;-83
2023/07/31 11:55:37;;;;;;;;;;;;;;;30.03;40.90;100361.73;102195;1303;61428;-83
2023/07/31 11:58:03;;;;;;;;;;;;;;;30.03;40.91;100359.20;102293;1302;61461;-83
2023/07/31 12:00:28;;;;;;;;;;;;;;;30.04;41.07;100356.42;102282;1301;61536;-83
2023/07/31 12:02:54;;;;;;;;;;;;;;;30.04;40.93;100351.54;102230;1303;63686;-83
2023/07/31 12:05:19;;;;;;;;;;;;;;;30.04;41.02;100353.47;102211;1308;61458;-83
2023/07/31 12:07:45;;;;;;;;;;;;;;;30.05;41.01;100354.53;102264;1302;61880;-83
2023/07/31 12:10:11;;;;;;;;;;;;;;;30.05;40.90;100353.20;102310;1303;61313;-83
2023/07/31 12:12:38;;;;;;;;;;;;;;;30.05;41.05;100352.40;102205;1303;61815;-83
2023/07/31 12:15:13;;;;;;;;;;;;;;;30.05;40.90;100352.40;102296;1303;61416;-83
2023/07/31 12:17:39;;;;;;;;;;;;;;;30.06;40.95;100354.88;102213;1305;61246;-83
2023/07/31 12:20:04;;;;;;;;;;;;;;;30.07;41.03;100359.48;102189;1306;61500;-83
2023/07/31 12:22:30;;;;;;;;;;;;;;;30.07;41.13;100359.11;102230;1306;61413;-83